sensor_id;sensor_type;location;lat;lon;timestamp;P1;durP1;ratioP1;P2;durP2;ratioP2
59273;SDS011;45044;41.572;24.730;2023-02-24T00:01:38;40.08;;;25.70;;
59273;SDS011;45044;41.572;24.730;2023-02-24T00:04:06;41.05;;;24.70;;
59273;SDS011;45044;41.572;24.730;2023-02-24T00:06:36;48.72;;;27.67;;
59273;SDS011;45044;41.572;24.730;2023-02-24T00:11:42;42.03;;;28.50;;
59273;SDS011;45044;41.572;24.730;2023-02-24T00:14:18;40.47;;;25.58;;
59273;SDS011;45044;41.572;24.730;2023-02-24T00:16:46;50.85;;;29.33;;
59273;SDS011;45044;41.572;24.730;2023-02-24T00:19:14;44.95;;;27.95;;
59273;SDS011;45044;41.572;24.730;2023-02-24T00:21:43;42.80;;;26.48;;
59273;SDS011;45044;41.572;24.730;2023-02-24T00:24:11;37.67;;;23.80;;
59273;SDS011;45044;41.572;24.730;2023-02-24T00:26:39;42.58;;;26.00;;
59273;SDS011;45044;41.572;24.730;2023-02-24T00:29:08;39.70;;;26.63;;
59273;SDS011;45044;41.572;24.730;2023-02-24T00:31:36;37.58;;;23.13;;
59273;SDS011;45044;41.572;24.730;2023-02-24T00:34:05;36.53;;;22.88;;
59273;SDS011;45044;41.572;24.730;2023-02-24T00:36:32;42.88;;;26.63;;
59273;SDS011;45044;41.572;24.730;2023-02-24T00:39:00;37.42;;;24.75;;
59273;SDS011;45044;41.572;24.730;2023-02-24T00:41:35;38.17;;;23.27;;
59273;SDS011;45044;41.572;24.730;2023-02-24T00:44:05;38.10;;;23.98;;
59273;SDS011;45044;41.572;24.730;2023-02-24T00:46:38;38.03;;;23.67;;
59273;SDS011;45044;41.572;24.730;2023-02-24T00:49:10;37.80;;;24.10;;
59273;SDS011;45044;41.572;24.730;2023-02-24T00:51:46;34.05;;;22.30;;
59273;SDS011;45044;41.572;24.730;2023-02-24T00:54:15;35.88;;;22.73;;
59273;SDS011;45044;41.572;24.730;2023-02-24T00:56:45;34.08;;;21.75;;
59273;SDS011;45044;41.572;24.730;2023-02-24T00:59:14;32.80;;;22.13;;
59273;SDS011;45044;41.572;24.730;2023-02-24T01:01:44;34.80;;;22.10;;
59273;SDS011;45044;41.572;24.730;2023-02-24T01:04:12;32.42;;;22.65;;
59273;SDS011;45044;41.572;24.730;2023-02-24T01:06:40;35.63;;;21.48;;
59273;SDS011;45044;41.572;24.730;2023-02-24T01:09:15;51.75;;;28.52;;
59273;SDS011;45044;41.572;24.730;2023-02-24T01:11:44;61.38;;;33.00;;
59273;SDS011;45044;41.572;24.730;2023-02-24T01:14:32;61.65;;;33.67;;
59273;SDS011;45044;41.572;24.730;2023-02-24T01:17:01;43.38;;;24.65;;
59273;SDS011;45044;41.572;24.730;2023-02-24T01:19:29;57.10;;;31.65;;
59273;SDS011;45044;41.572;24.730;2023-02-24T01:21:58;59.22;;;33.22;;
59273;SDS011;45044;41.572;24.730;2023-02-24T01:24:30;79.05;;;40.80;;
59273;SDS011;45044;41.572;24.730;2023-02-24T01:27:00;102.93;;;50.50;;
59273;SDS011;45044;41.572;24.730;2023-02-24T01:29:27;167.40;;;71.50;;
59273;SDS011;45044;41.572;24.730;2023-02-24T01:31:54;76.30;;;36.58;;
59273;SDS011;45044;41.572;24.730;2023-02-24T01:34:25;98.35;;;43.65;;
59273;SDS011;45044;41.572;24.730;2023-02-24T01:36:52;51.88;;;27.05;;
59273;SDS011;45044;41.572;24.730;2023-02-24T01:39:19;84.53;;;39.60;;
59273;SDS011;45044;41.572;24.730;2023-02-24T01:41:47;93.47;;;41.42;;
59273;SDS011;45044;41.572;24.730;2023-02-24T01:46:44;41.25;;;23.20;;
59273;SDS011;45044;41.572;24.730;2023-02-24T01:51:44;28.55;;;16.10;;
59273;SDS011;45044;41.572;24.730;2023-02-24T01:54:15;25.30;;;14.60;;
59273;SDS011;45044;41.572;24.730;2023-02-24T01:56:45;28.60;;;16.42;;
59273;SDS011;45044;41.572;24.730;2023-02-24T01:59:14;79.82;;;36.35;;
59273;SDS011;45044;41.572;24.730;2023-02-24T02:01:41;60.88;;;29.80;;
59273;SDS011;45044;41.572;24.730;2023-02-24T02:04:14;77.82;;;39.13;;
59273;SDS011;45044;41.572;24.730;2023-02-24T02:06:46;95.85;;;45.75;;
59273;SDS011;45044;41.572;24.730;2023-02-24T02:09:14;56.23;;;29.10;;
59273;SDS011;45044;41.572;24.730;2023-02-24T02:11:41;31.27;;;20.13;;
59273;SDS011;45044;41.572;24.730;2023-02-24T02:14:11;29.35;;;20.55;;
59273;SDS011;45044;41.572;24.730;2023-02-24T02:23:25;36.55;;;23.63;;
59273;SDS011;45044;41.572;24.730;2023-02-24T02:37:19;34.53;;;20.58;;
59273;SDS011;45044;41.572;24.730;2023-02-24T02:40:03;34.85;;;21.45;;
59273;SDS011;45044;41.572;24.730;2023-02-24T02:45:41;35.50;;;23.50;;
59273;SDS011;45044;41.572;24.730;2023-02-24T02:48:20;37.57;;;22.50;;
59273;SDS011;45044;41.572;24.730;2023-02-24T02:50:54;31.60;;;20.23;;
59273;SDS011;45044;41.572;24.730;2023-02-24T02:53:32;33.97;;;20.92;;
59273;SDS011;45044;41.572;24.730;2023-02-24T02:56:12;34.03;;;20.70;;
59273;SDS011;45044;41.572;24.730;2023-02-24T02:58:46;33.88;;;20.77;;
59273;SDS011;45044;41.572;24.730;2023-02-24T03:01:19;37.90;;;23.10;;
59273;SDS011;45044;41.572;24.730;2023-02-24T03:03:58;27.67;;;17.13;;
59273;SDS011;45044;41.572;24.730;2023-02-24T03:06:31;28.83;;;15.52;;
59273;SDS011;45044;41.572;24.730;2023-02-24T03:09:19;31.08;;;20.52;;
59273;SDS011;45044;41.572;24.730;2023-02-24T03:11:52;34.78;;;20.50;;
59273;SDS011;45044;41.572;24.730;2023-02-24T03:14:25;41.75;;;21.95;;
59273;SDS011;45044;41.572;24.730;2023-02-24T03:16:57;35.28;;;20.92;;
59273;SDS011;45044;41.572;24.730;2023-02-24T03:19:32;31.55;;;18.17;;
59273;SDS011;45044;41.572;24.730;2023-02-24T03:22:23;30.92;;;16.65;;
59273;SDS011;45044;41.572;24.730;2023-02-24T03:25:04;24.23;;;14.40;;
59273;SDS011;45044;41.572;24.730;2023-02-24T03:27:37;22.88;;;14.32;;
59273;SDS011;45044;41.572;24.730;2023-02-24T03:30:24;21.08;;;13.43;;
59273;SDS011;45044;41.572;24.730;2023-02-24T03:33:01;23.80;;;13.88;;
59273;SDS011;45044;41.572;24.730;2023-02-24T03:35:38;19.92;;;11.95;;
59273;SDS011;45044;41.572;24.730;2023-02-24T03:38:07;19.87;;;13.13;;
59273;SDS011;45044;41.572;24.730;2023-02-24T03:40:44;19.50;;;11.82;;
59273;SDS011;45044;41.572;24.730;2023-02-24T03:46:08;19.42;;;13.15;;
59273;SDS011;45044;41.572;24.730;2023-02-24T03:48:37;21.55;;;13.65;;
59273;SDS011;45044;41.572;24.730;2023-02-24T03:51:14;21.88;;;13.75;;
59273;SDS011;45044;41.572;24.730;2023-02-24T03:56:53;31.27;;;19.10;;
59273;SDS011;45044;41.572;24.730;2023-02-24T04:04:55;38.00;;;23.73;;
59273;SDS011;45044;41.572;24.730;2023-02-24T04:07:42;28.33;;;18.52;;
59273;SDS011;45044;41.572;24.730;2023-02-24T04:12:59;75.88;;;35.03;;
59273;SDS011;45044;41.572;24.730;2023-02-24T04:15:31;91.07;;;41.90;;
59273;SDS011;45044;41.572;24.730;2023-02-24T04:18:10;47.17;;;25.65;;
59273;SDS011;45044;41.572;24.730;2023-02-24T04:20:42;43.75;;;24.55;;
59273;SDS011;45044;41.572;24.730;2023-02-24T04:23:11;42.60;;;27.10;;
59273;SDS011;45044;41.572;24.730;2023-02-24T04:25:43;43.67;;;26.13;;
59273;SDS011;45044;41.572;24.730;2023-02-24T04:28:13;38.30;;;23.50;;
59273;SDS011;45044;41.572;24.730;2023-02-24T04:30:42;37.97;;;22.02;;
59273;SDS011;45044;41.572;24.730;2023-02-24T04:33:13;44.55;;;25.92;;
59273;SDS011;45044;41.572;24.730;2023-02-24T04:35:43;94.00;;;42.47;;
59273;SDS011;45044;41.572;24.730;2023-02-24T04:38:16;80.43;;;39.75;;
59273;SDS011;45044;41.572;24.730;2023-02-24T04:40:43;48.33;;;26.63;;
59273;SDS011;45044;41.572;24.730;2023-02-24T04:43:10;46.97;;;26.90;;
59273;SDS011;45044;41.572;24.730;2023-02-24T04:45:38;52.53;;;28.40;;
59273;SDS011;45044;41.572;24.730;2023-02-24T04:48:05;39.53;;;24.30;;
59273;SDS011;45044;41.572;24.730;2023-02-24T04:50:39;36.33;;;22.38;;
59273;SDS011;45044;41.572;24.730;2023-02-24T04:53:16;29.83;;;19.70;;
59273;SDS011;45044;41.572;24.730;2023-02-24T04:55:44;33.72;;;23.70;;
59273;SDS011;45044;41.572;24.730;2023-02-24T04:58:17;36.47;;;23.02;;
59273;SDS011;45044;41.572;24.730;2023-02-24T05:00:47;36.58;;;26.35;;
59273;SDS011;45044;41.572;24.730;2023-02-24T05:03:19;38.38;;;23.95;;
59273;SDS011;45044;41.572;24.730;2023-02-24T05:08:17;32.75;;;22.27;;
59273;SDS011;45044;41.572;24.730;2023-02-24T05:10:45;44.97;;;31.80;;
59273;SDS011;45044;41.572;24.730;2023-02-24T05:13:14;68.22;;;50.58;;
59273;SDS011;45044;41.572;24.730;2023-02-24T05:15:46;51.55;;;34.97;;
59273;SDS011;45044;41.572;24.730;2023-02-24T05:18:14;37.55;;;25.67;;
59273;SDS011;45044;41.572;24.730;2023-02-24T05:20:46;34.67;;;21.92;;
59273;SDS011;45044;41.572;24.730;2023-02-24T05:23:34;31.00;;;19.33;;
59273;SDS011;45044;41.572;24.730;2023-02-24T05:26:05;28.07;;;18.67;;
59273;SDS011;45044;41.572;24.730;2023-02-24T05:28:39;22.88;;;17.50;;
59273;SDS011;45044;41.572;24.730;2023-02-24T05:31:07;43.13;;;22.50;;
59273;SDS011;45044;41.572;24.730;2023-02-24T05:33:36;30.50;;;20.27;;
59273;SDS011;45044;41.572;24.730;2023-02-24T05:36:05;42.03;;;27.25;;
59273;SDS011;45044;41.572;24.730;2023-02-24T05:38:34;36.40;;;25.92;;
59273;SDS011;45044;41.572;24.730;2023-02-24T05:41:07;39.28;;;28.35;;
59273;SDS011;45044;41.572;24.730;2023-02-24T05:43:45;41.95;;;28.27;;
59273;SDS011;45044;41.572;24.730;2023-02-24T05:46:18;35.80;;;26.90;;
59273;SDS011;45044;41.572;24.730;2023-02-24T05:48:57;40.17;;;29.63;;
59273;SDS011;45044;41.572;24.730;2023-02-24T05:51:27;50.65;;;35.25;;
59273;SDS011;45044;41.572;24.730;2023-02-24T05:54:04;41.53;;;31.30;;
59273;SDS011;45044;41.572;24.730;2023-02-24T05:56:33;48.20;;;33.03;;
59273;SDS011;45044;41.572;24.730;2023-02-24T05:59:02;42.20;;;31.52;;
59273;SDS011;45044;41.572;24.730;2023-02-24T06:01:31;40.25;;;27.67;;
59273;SDS011;45044;41.572;24.730;2023-02-24T06:04:02;39.10;;;26.58;;
59273;SDS011;45044;41.572;24.730;2023-02-24T06:06:34;41.40;;;30.63;;
59273;SDS011;45044;41.572;24.730;2023-02-24T06:09:06;45.47;;;31.40;;
59273;SDS011;45044;41.572;24.730;2023-02-24T06:11:37;45.88;;;33.38;;
59273;SDS011;45044;41.572;24.730;2023-02-24T06:14:06;50.90;;;37.50;;
59273;SDS011;45044;41.572;24.730;2023-02-24T06:16:38;50.13;;;38.00;;
59273;SDS011;45044;41.572;24.730;2023-02-24T06:19:06;55.17;;;40.13;;
59273;SDS011;45044;41.572;24.730;2023-02-24T06:21:36;56.70;;;41.95;;
59273;SDS011;45044;41.572;24.730;2023-02-24T06:24:10;56.30;;;42.97;;
59273;SDS011;45044;41.572;24.730;2023-02-24T06:26:43;76.45;;;51.15;;
59273;SDS011;45044;41.572;24.730;2023-02-24T06:29:14;77.68;;;51.38;;
59273;SDS011;45044;41.572;24.730;2023-02-24T06:31:42;75.18;;;51.70;;
59273;SDS011;45044;41.572;24.730;2023-02-24T06:34:10;86.90;;;62.22;;
59273;SDS011;45044;41.572;24.730;2023-02-24T06:36:39;100.72;;;68.93;;
59273;SDS011;45044;41.572;24.730;2023-02-24T06:39:06;68.07;;;51.42;;
59273;SDS011;45044;41.572;24.730;2023-02-24T06:41:34;66.45;;;47.55;;
59273;SDS011;45044;41.572;24.730;2023-02-24T06:44:02;62.90;;;44.47;;
59273;SDS011;45044;41.572;24.730;2023-02-24T06:46:29;67.60;;;49.35;;
59273;SDS011;45044;41.572;24.730;2023-02-24T06:48:56;52.30;;;38.63;;
59273;SDS011;45044;41.572;24.730;2023-02-24T06:51:26;45.25;;;32.45;;
59273;SDS011;45044;41.572;24.730;2023-02-24T06:53:56;41.42;;;28.88;;
59273;SDS011;45044;41.572;24.730;2023-02-24T06:56:25;44.00;;;32.67;;
59273;SDS011;45044;41.572;24.730;2023-02-24T06:58:53;47.53;;;33.63;;
59273;SDS011;45044;41.572;24.730;2023-02-24T07:01:22;44.42;;;33.72;;
59273;SDS011;45044;41.572;24.730;2023-02-24T07:03:52;41.25;;;32.75;;
59273;SDS011;45044;41.572;24.730;2023-02-24T07:06:35;40.42;;;30.15;;
59273;SDS011;45044;41.572;24.730;2023-02-24T07:09:05;41.88;;;30.50;;
59273;SDS011;45044;41.572;24.730;2023-02-24T07:11:34;37.45;;;28.00;;
59273;SDS011;45044;41.572;24.730;2023-02-24T07:14:03;34.28;;;24.73;;
59273;SDS011;45044;41.572;24.730;2023-02-24T07:16:33;29.30;;;21.55;;
59273;SDS011;45044;41.572;24.730;2023-02-24T07:19:02;33.67;;;24.98;;
59273;SDS011;45044;41.572;24.730;2023-02-24T07:21:40;32.10;;;17.35;;
59273;SDS011;45044;41.572;24.730;2023-02-24T07:24:19;24.48;;;16.65;;
59273;SDS011;45044;41.572;24.730;2023-02-24T07:26:59;26.23;;;17.40;;
59273;SDS011;45044;41.572;24.730;2023-02-24T07:29:30;31.77;;;21.83;;
59273;SDS011;45044;41.572;24.730;2023-02-24T07:32:00;40.40;;;28.67;;
59273;SDS011;45044;41.572;24.730;2023-02-24T07:34:29;50.97;;;35.25;;
59273;SDS011;45044;41.572;24.730;2023-02-24T07:36:56;52.72;;;37.38;;
59273;SDS011;45044;41.572;24.730;2023-02-24T07:39:23;47.00;;;33.60;;
59273;SDS011;45044;41.572;24.730;2023-02-24T07:41:51;35.92;;;25.85;;
59273;SDS011;45044;41.572;24.730;2023-02-24T07:44:22;26.02;;;19.42;;
59273;SDS011;45044;41.572;24.730;2023-02-24T07:46:50;36.17;;;25.00;;
59273;SDS011;45044;41.572;24.730;2023-02-24T07:49:18;44.15;;;29.85;;
59273;SDS011;45044;41.572;24.730;2023-02-24T07:51:49;41.08;;;29.13;;
59273;SDS011;45044;41.572;24.730;2023-02-24T07:54:20;39.35;;;28.27;;
59273;SDS011;45044;41.572;24.730;2023-02-24T07:56:48;33.97;;;26.00;;
59273;SDS011;45044;41.572;24.730;2023-02-24T07:59:32;33.17;;;25.20;;
59273;SDS011;45044;41.572;24.730;2023-02-24T08:02:00;35.75;;;23.48;;
59273;SDS011;45044;41.572;24.730;2023-02-24T08:04:32;35.00;;;24.73;;
59273;SDS011;45044;41.572;24.730;2023-02-24T08:06:59;30.27;;;22.63;;
59273;SDS011;45044;41.572;24.730;2023-02-24T08:09:30;28.35;;;22.05;;
59273;SDS011;45044;41.572;24.730;2023-02-24T08:14:37;30.77;;;22.90;;
59273;SDS011;45044;41.572;24.730;2023-02-24T08:17:10;30.80;;;22.42;;
59273;SDS011;45044;41.572;24.730;2023-02-24T08:19:37;27.30;;;20.15;;
59273;SDS011;45044;41.572;24.730;2023-02-24T08:22:09;25.25;;;18.27;;
59273;SDS011;45044;41.572;24.730;2023-02-24T08:24:56;22.48;;;16.05;;
59273;SDS011;45044;41.572;24.730;2023-02-24T08:27:27;21.80;;;16.20;;
59273;SDS011;45044;41.572;24.730;2023-02-24T08:29:58;19.25;;;12.98;;
59273;SDS011;45044;41.572;24.730;2023-02-24T08:32:33;17.90;;;13.48;;
59273;SDS011;45044;41.572;24.730;2023-02-24T08:35:03;16.50;;;12.60;;
59273;SDS011;45044;41.572;24.730;2023-02-24T08:37:41;12.65;;;10.15;;
59273;SDS011;45044;41.572;24.730;2023-02-24T08:40:17;17.15;;;13.85;;
59273;SDS011;45044;41.572;24.730;2023-02-24T08:42:58;17.40;;;12.43;;
59273;SDS011;45044;41.572;24.730;2023-02-24T08:45:48;14.75;;;11.60;;
59273;SDS011;45044;41.572;24.730;2023-02-24T08:48:18;13.70;;;9.75;;
59273;SDS011;45044;41.572;24.730;2023-02-24T08:51:00;14.55;;;11.38;;
59273;SDS011;45044;41.572;24.730;2023-02-24T08:53:27;12.80;;;9.02;;
59273;SDS011;45044;41.572;24.730;2023-02-24T08:55:57;15.98;;;10.52;;
59273;SDS011;45044;41.572;24.730;2023-02-24T08:58:25;14.25;;;9.30;;
59273;SDS011;45044;41.572;24.730;2023-02-24T09:00:53;12.02;;;8.55;;
59273;SDS011;45044;41.572;24.730;2023-02-24T09:03:23;14.18;;;10.90;;
59273;SDS011;45044;41.572;24.730;2023-02-24T09:05:58;18.30;;;9.15;;
59273;SDS011;45044;41.572;24.730;2023-02-24T09:08:35;11.75;;;7.95;;
59273;SDS011;45044;41.572;24.730;2023-02-24T09:11:07;13.93;;;10.18;;
59273;SDS011;45044;41.572;24.730;2023-02-24T09:13:43;13.10;;;9.80;;
59273;SDS011;45044;41.572;24.730;2023-02-24T09:16:18;16.27;;;11.90;;
59273;SDS011;45044;41.572;24.730;2023-02-24T09:18:46;15.73;;;11.85;;
59273;SDS011;45044;41.572;24.730;2023-02-24T09:21:32;15.30;;;10.02;;
59273;SDS011;45044;41.572;24.730;2023-02-24T09:24:15;13.15;;;9.75;;
59273;SDS011;45044;41.572;24.730;2023-02-24T09:26:52;14.73;;;11.32;;
59273;SDS011;45044;41.572;24.730;2023-02-24T09:29:24;17.58;;;11.32;;
59273;SDS011;45044;41.572;24.730;2023-02-24T09:32:02;15.57;;;10.57;;
59273;SDS011;45044;41.572;24.730;2023-02-24T09:34:33;13.95;;;11.18;;
59273;SDS011;45044;41.572;24.730;2023-02-24T09:37:01;15.00;;;10.63;;
59273;SDS011;45044;41.572;24.730;2023-02-24T09:39:29;16.63;;;11.60;;
59273;SDS011;45044;41.572;24.730;2023-02-24T09:42:20;15.38;;;10.82;;
59273;SDS011;45044;41.572;24.730;2023-02-24T09:45:02;16.52;;;11.48;;
59273;SDS011;45044;41.572;24.730;2023-02-24T09:47:38;15.32;;;11.65;;
59273;SDS011;45044;41.572;24.730;2023-02-24T09:50:23;11.63;;;8.13;;
59273;SDS011;45044;41.572;24.730;2023-02-24T09:53:28;12.38;;;9.55;;
59273;SDS011;45044;41.572;24.730;2023-02-24T09:56:13;14.98;;;10.57;;
59273;SDS011;45044;41.572;24.730;2023-02-24T09:59:07;14.48;;;10.35;;
59273;SDS011;45044;41.572;24.730;2023-02-24T10:01:47;17.02;;;11.40;;
59273;SDS011;45044;41.572;24.730;2023-02-24T10:07:18;14.25;;;9.90;;
59273;SDS011;45044;41.572;24.730;2023-02-24T10:10:05;13.75;;;9.30;;
59273;SDS011;45044;41.572;24.730;2023-02-24T10:12:46;12.50;;;9.32;;
59273;SDS011;45044;41.572;24.730;2023-02-24T10:15:22;16.38;;;10.07;;
59273;SDS011;45044;41.572;24.730;2023-02-24T10:18:31;16.00;;;10.83;;
59273;SDS011;45044;41.572;24.730;2023-02-24T10:21:03;10.95;;;7.68;;
59273;SDS011;45044;41.572;24.730;2023-02-24T10:23:50;13.30;;;9.40;;
59273;SDS011;45044;41.572;24.730;2023-02-24T10:27:12;12.20;;;9.15;;
59273;SDS011;45044;41.572;24.730;2023-02-24T10:32:17;11.25;;;8.85;;
59273;SDS011;45044;41.572;24.730;2023-02-24T10:34:50;12.60;;;8.50;;
59273;SDS011;45044;41.572;24.730;2023-02-24T10:37:19;15.27;;;10.73;;
59273;SDS011;45044;41.572;24.730;2023-02-24T10:39:58;10.82;;;7.53;;
59273;SDS011;45044;41.572;24.730;2023-02-24T10:42:36;13.43;;;8.95;;
59273;SDS011;45044;41.572;24.730;2023-02-24T10:47:48;16.80;;;11.32;;
59273;SDS011;45044;41.572;24.730;2023-02-24T10:53:01;11.98;;;8.85;;
59273;SDS011;45044;41.572;24.730;2023-02-24T10:55:40;11.43;;;8.38;;
59273;SDS011;45044;41.572;24.730;2023-02-24T10:58:21;9.75;;;6.80;;
59273;SDS011;45044;41.572;24.730;2023-02-24T11:00:57;12.57;;;9.82;;
59273;SDS011;45044;41.572;24.730;2023-02-24T11:03:54;12.73;;;8.40;;
59273;SDS011;45044;41.572;24.730;2023-02-24T11:06:38;11.30;;;8.13;;
59273;SDS011;45044;41.572;24.730;2023-02-24T11:09:19;12.05;;;9.18;;
59273;SDS011;45044;41.572;24.730;2023-02-24T11:11:47;10.32;;;7.50;;
59273;SDS011;45044;41.572;24.730;2023-02-24T11:14:37;12.65;;;8.63;;
59273;SDS011;45044;41.572;24.730;2023-02-24T11:17:33;10.57;;;7.35;;
59273;SDS011;45044;41.572;24.730;2023-02-24T11:20:04;12.73;;;7.72;;
59273;SDS011;45044;41.572;24.730;2023-02-24T11:22:41;13.65;;;9.00;;
59273;SDS011;45044;41.572;24.730;2023-02-24T11:25:33;17.63;;;8.68;;
59273;SDS011;45044;41.572;24.730;2023-02-24T11:28:16;13.17;;;8.67;;
59273;SDS011;45044;41.572;24.730;2023-02-24T11:36:23;12.10;;;8.55;;
59273;SDS011;45044;41.572;24.730;2023-02-24T11:41:52;10.13;;;6.53;;
59273;SDS011;45044;41.572;24.730;2023-02-24T11:44:26;12.30;;;7.72;;
59273;SDS011;45044;41.572;24.730;2023-02-24T11:46:58;9.88;;;7.40;;
59273;SDS011;45044;41.572;24.730;2023-02-24T11:49:43;14.57;;;9.35;;
59273;SDS011;45044;41.572;24.730;2023-02-24T11:52:18;12.55;;;8.98;;
59273;SDS011;45044;41.572;24.730;2023-02-24T11:54:49;13.02;;;10.55;;
59273;SDS011;45044;41.572;24.730;2023-02-24T11:57:21;17.17;;;12.10;;
59273;SDS011;45044;41.572;24.730;2023-02-24T11:59:59;13.98;;;10.55;;
59273;SDS011;45044;41.572;24.730;2023-02-24T12:02:33;15.27;;;9.43;;
59273;SDS011;45044;41.572;24.730;2023-02-24T12:05:12;14.43;;;9.88;;
59273;SDS011;45044;41.572;24.730;2023-02-24T12:07:47;12.38;;;8.77;;
59273;SDS011;45044;41.572;24.730;2023-02-24T12:10:19;13.50;;;9.55;;
59273;SDS011;45044;41.572;24.730;2023-02-24T12:15:55;13.25;;;9.30;;
59273;SDS011;45044;41.572;24.730;2023-02-24T12:18:35;12.40;;;9.30;;
59273;SDS011;45044;41.572;24.730;2023-02-24T12:21:07;11.68;;;7.70;;
59273;SDS011;45044;41.572;24.730;2023-02-24T12:23:41;12.77;;;8.70;;
59273;SDS011;45044;41.572;24.730;2023-02-24T12:32:37;12.45;;;7.60;;
59273;SDS011;45044;41.572;24.730;2023-02-24T12:43:37;13.13;;;10.05;;
59273;SDS011;45044;41.572;24.730;2023-02-24T12:51:58;12.20;;;7.55;;
59273;SDS011;45044;41.572;24.730;2023-02-24T13:00:01;16.20;;;11.18;;
59273;SDS011;45044;41.572;24.730;2023-02-24T13:05:27;13.70;;;9.23;;
59273;SDS011;45044;41.572;24.730;2023-02-24T13:16:28;16.40;;;11.88;;
59273;SDS011;45044;41.572;24.730;2023-02-24T13:21:30;12.40;;;9.40;;
59273;SDS011;45044;41.572;24.730;2023-02-24T13:24:00;17.80;;;9.95;;
59273;SDS011;45044;41.572;24.730;2023-02-24T13:26:29;15.05;;;10.40;;
59273;SDS011;45044;41.572;24.730;2023-02-24T13:29:18;12.65;;;9.13;;
59273;SDS011;45044;41.572;24.730;2023-02-24T13:31:45;14.85;;;9.15;;
59273;SDS011;45044;41.572;24.730;2023-02-24T13:36:51;13.68;;;9.45;;
59273;SDS011;45044;41.572;24.730;2023-02-24T13:44:51;14.82;;;9.68;;
59273;SDS011;45044;41.572;24.730;2023-02-24T13:52:45;16.20;;;10.27;;
59273;SDS011;45044;41.572;24.730;2023-02-24T14:01:12;13.77;;;9.80;;
59273;SDS011;45044;41.572;24.730;2023-02-24T14:03:43;14.32;;;9.15;;
59273;SDS011;45044;41.572;24.730;2023-02-24T14:06:26;16.52;;;10.45;;
59273;SDS011;45044;41.572;24.730;2023-02-24T14:09:00;17.98;;;12.15;;
59273;SDS011;45044;41.572;24.730;2023-02-24T14:11:30;17.08;;;10.77;;
59273;SDS011;45044;41.572;24.730;2023-02-24T14:14:00;40.75;;;30.80;;
59273;SDS011;45044;41.572;24.730;2023-02-24T14:16:30;27.25;;;18.48;;
59273;SDS011;45044;41.572;24.730;2023-02-24T14:19:01;29.20;;;21.83;;
59273;SDS011;45044;41.572;24.730;2023-02-24T14:21:30;24.35;;;17.90;;
59273;SDS011;45044;41.572;24.730;2023-02-24T14:24:02;23.33;;;16.05;;
59273;SDS011;45044;41.572;24.730;2023-02-24T14:26:43;16.80;;;10.27;;
59273;SDS011;45044;41.572;24.730;2023-02-24T14:29:23;15.82;;;9.85;;
59273;SDS011;45044;41.572;24.730;2023-02-24T14:31:54;47.47;;;28.67;;
59273;SDS011;45044;41.572;24.730;2023-02-24T14:34:23;14.98;;;9.85;;
59273;SDS011;45044;41.572;24.730;2023-02-24T14:36:58;15.55;;;9.18;;
59273;SDS011;45044;41.572;24.730;2023-02-24T14:39:28;16.42;;;10.88;;
59273;SDS011;45044;41.572;24.730;2023-02-24T14:44:39;14.23;;;9.02;;
59273;SDS011;45044;41.572;24.730;2023-02-24T14:47:11;17.73;;;11.00;;
59273;SDS011;45044;41.572;24.730;2023-02-24T14:49:40;18.10;;;10.90;;
59273;SDS011;45044;41.572;24.730;2023-02-24T14:54:52;14.70;;;8.32;;
59273;SDS011;45044;41.572;24.730;2023-02-24T14:57:21;19.10;;;13.43;;
59273;SDS011;45044;41.572;24.730;2023-02-24T14:59:53;19.92;;;12.32;;
59273;SDS011;45044;41.572;24.730;2023-02-24T15:02:24;18.98;;;12.55;;
59273;SDS011;45044;41.572;24.730;2023-02-24T15:04:57;16.83;;;11.03;;
59273;SDS011;45044;41.572;24.730;2023-02-24T15:07:25;19.92;;;13.75;;
59273;SDS011;45044;41.572;24.730;2023-02-24T15:09:56;17.10;;;10.93;;
59273;SDS011;45044;41.572;24.730;2023-02-24T15:15:03;23.63;;;13.98;;
59273;SDS011;45044;41.572;24.730;2023-02-24T15:17:37;23.92;;;15.60;;
59273;SDS011;45044;41.572;24.730;2023-02-24T15:22:51;21.52;;;12.43;;
59273;SDS011;45044;41.572;24.730;2023-02-24T15:30:34;16.75;;;11.45;;
59273;SDS011;45044;41.572;24.730;2023-02-24T15:33:06;19.50;;;12.52;;
59273;SDS011;45044;41.572;24.730;2023-02-24T15:35:49;20.10;;;12.35;;
59273;SDS011;45044;41.572;24.730;2023-02-24T15:38:24;26.73;;;21.17;;
59273;SDS011;45044;41.572;24.730;2023-02-24T15:40:59;21.00;;;13.93;;
59273;SDS011;45044;41.572;24.730;2023-02-24T15:43:35;20.15;;;14.73;;
59273;SDS011;45044;41.572;24.730;2023-02-24T15:46:23;28.58;;;19.80;;
59273;SDS011;45044;41.572;24.730;2023-02-24T15:48:55;18.90;;;12.60;;
59273;SDS011;45044;41.572;24.730;2023-02-24T15:54:11;19.90;;;13.23;;
59273;SDS011;45044;41.572;24.730;2023-02-24T15:56:46;28.60;;;16.33;;
59273;SDS011;45044;41.572;24.730;2023-02-24T15:59:14;24.10;;;15.68;;
59273;SDS011;45044;41.572;24.730;2023-02-24T16:01:43;24.52;;;15.57;;
59273;SDS011;45044;41.572;24.730;2023-02-24T16:04:10;21.95;;;12.98;;
59273;SDS011;45044;41.572;24.730;2023-02-24T16:06:37;21.48;;;13.82;;
59273;SDS011;45044;41.572;24.730;2023-02-24T16:09:10;24.27;;;17.50;;
59273;SDS011;45044;41.572;24.730;2023-02-24T16:11:40;28.08;;;18.55;;
59273;SDS011;45044;41.572;24.730;2023-02-24T16:14:13;30.95;;;22.40;;
59273;SDS011;45044;41.572;24.730;2023-02-24T16:16:42;24.52;;;17.58;;
59273;SDS011;45044;41.572;24.730;2023-02-24T16:19:12;27.08;;;17.92;;
59273;SDS011;45044;41.572;24.730;2023-02-24T16:21:40;25.50;;;16.20;;
59273;SDS011;45044;41.572;24.730;2023-02-24T16:24:07;33.35;;;20.00;;
59273;SDS011;45044;41.572;24.730;2023-02-24T16:26:34;36.20;;;23.98;;
59273;SDS011;45044;41.572;24.730;2023-02-24T16:29:03;40.78;;;27.90;;
59273;SDS011;45044;41.572;24.730;2023-02-24T16:31:37;69.78;;;42.58;;
59273;SDS011;45044;41.572;24.730;2023-02-24T16:34:05;34.90;;;21.73;;
59273;SDS011;45044;41.572;24.730;2023-02-24T16:36:32;27.08;;;19.15;;
59273;SDS011;45044;41.572;24.730;2023-02-24T16:38:59;36.90;;;21.98;;
59273;SDS011;45044;41.572;24.730;2023-02-24T16:41:26;38.72;;;24.88;;
59273;SDS011;45044;41.572;24.730;2023-02-24T16:43:54;49.45;;;29.92;;
59273;SDS011;45044;41.572;24.730;2023-02-24T16:46:21;45.40;;;30.33;;
59273;SDS011;45044;41.572;24.730;2023-02-24T16:48:50;26.85;;;18.23;;
59273;SDS011;45044;41.572;24.730;2023-02-24T16:51:18;30.70;;;19.42;;
59273;SDS011;45044;41.572;24.730;2023-02-24T16:53:45;27.48;;;20.30;;
59273;SDS011;45044;41.572;24.730;2023-02-24T16:56:12;27.08;;;18.92;;
59273;SDS011;45044;41.572;24.730;2023-02-24T16:58:40;32.03;;;22.83;;
59273;SDS011;45044;41.572;24.730;2023-02-24T17:01:07;30.00;;;21.55;;
59273;SDS011;45044;41.572;24.730;2023-02-24T17:03:42;31.35;;;19.63;;
59273;SDS011;45044;41.572;24.730;2023-02-24T17:06:12;31.33;;;22.30;;
59273;SDS011;45044;41.572;24.730;2023-02-24T17:08:39;32.85;;;23.92;;
59273;SDS011;45044;41.572;24.730;2023-02-24T17:11:12;33.20;;;24.27;;
59273;SDS011;45044;41.572;24.730;2023-02-24T17:13:40;39.92;;;28.45;;